Weather History for La Porte, IN

Change the Weather History Date:

Sunday, January 27, 2013

  Actual Average (KVPZ) Record (KVPZ)
Temperature  
Mean Temperature 26 °F 24 °F  
Max Temperature 33 °F 31 °F 59 °F (2002)
Min Temperature 19 °F 16 °F -11 °F (2014)
Degree Days  
Heating Degree Days 39 41  
Month to date heating degree days 1122  
Since 1 July heating degree days 3524  
Cooling Degree Days 0 0  
Month to date cooling degree days 0  
Year to date cooling degree days 0  
Moisture  
Dew Point 21 °F    
Average Humidity 80    
Maximum Humidity 97    
Minimum Humidity 69    
Precipitation  
Precipitation 0.02 in 0.06 in 0.04 in (2013)
Month to date precipitation 1.53  
Year to date precipitation 1.53  
Sea Level Pressure  
Sea Level Pressure 30.24 in    
Wind  
Wind Speed 6 mph (SSE)    
Max Wind Speed 17 mph    
Max Gust Speed 24 mph    
Visibility 8 miles    
Events Snow    
T = Trace of Precipitation, MM = Missing Value Source: NWS Daily Summary

Daily Weather History Graph

Daily Weather History Graph

Search for Another Location

Airport:

Trip Planner

Search our weather history database for the weather conditions in past years. The results will help you decide how hot, cold, wet, or windy it might be!

Date:

Astronomy

Jan. 27, 2013 Rise Set
Actual Time 7:03 AM CST 4:56 PM CST
Civil Twilight 6:33 AM CST 5:26 PM CST
Nautical Twilight 6:00 AM CST 6:00 PM CST
Astronomical Twilight 5:27 AM CST 6:32 PM CST
Moon 5:51 PM CST (1/27) 6:54 AM CST (1/27)
Length of Visible Light 10h 53m
Length of Day
9h 53m
Full, 100% of the Moon is Illuminated
Jan 27
Full
Feb 3
Last Quarter
Feb 10
New
Feb 17
First Quarter
Feb 25
Full

Hourly Weather History & Observations

Time (CST) Temp. Windchill Dew Point Humidity Pressure Visibility Wind Dir Wind Speed Gust Speed Precip Events Conditions
12:15 AM 21.7 °F - 18.0 °F 85% 30.38 in 10.0 mi Calm Calm - N/A   Clear
12:35 AM 21.6 °F - 17.6 °F 85% 30.38 in 10.0 mi Calm Calm - N/A   Clear
12:55 AM 21.7 °F - 17.8 °F 85% 30.38 in 10.0 mi Calm Calm - N/A   Clear
1:15 AM 21.9 °F - 17.6 °F 83% 30.39 in 10.0 mi Calm Calm - N/A   Clear
1:35 AM 21.7 °F 17.0 °F 17.2 °F 83% 30.39 in 10.0 mi South 3.5 mph - N/A   Clear
1:55 AM 21.4 °F 15.1 °F 16.7 °F 82% 30.39 in 10.0 mi SSE 4.6 mph - N/A   Mostly Cloudy
2:15 AM 21.6 °F 16.8 °F 17.6 °F 85% 30.39 in 10.0 mi SSE 3.5 mph - N/A   Overcast
2:35 AM 22.5 °F 16.3 °F 18.0 °F 83% 30.38 in 10.0 mi SSE 4.6 mph - N/A   Overcast
2:55 AM 22.6 °F 16.5 °F 17.2 °F 80% 30.38 in 10.0 mi SSE 4.6 mph - N/A   Overcast
3:15 AM 22.8 °F 15.5 °F 16.7 °F 77% 30.39 in 10.0 mi SSE 5.8 mph - N/A   Overcast
3:35 AM 21.7 °F 15.5 °F 15.8 °F 78% 30.39 in 10.0 mi SSE 4.6 mph - N/A   Scattered Clouds
3:55 AM 20.3 °F 13.8 °F 14.5 °F 78% 30.38 in 10.0 mi South 4.6 mph - N/A   Scattered Clouds
4:15 AM 20.5 °F 12.8 °F 14.7 °F 78% 30.38 in 10.0 mi SSE 5.8 mph - N/A   Scattered Clouds
4:35 AM 19.6 °F 13.0 °F 14.0 °F 79% 30.38 in 10.0 mi SSE 4.6 mph - N/A   Mostly Cloudy
4:55 AM 19.2 °F 12.5 °F 13.8 °F 80% 30.38 in 10.0 mi SSE 4.6 mph - N/A   Overcast
5:15 AM 20.1 °F 12.3 °F 14.0 °F 77% 30.36 in 10.0 mi SE 5.8 mph - N/A   Scattered Clouds
5:35 AM 20.7 °F 11.9 °F 14.4 °F 77% 30.36 in 10.0 mi SE 6.9 mph - N/A   Clear
5:55 AM 21.2 °F 11.7 °F 14.7 °F 76% 30.36 in 10.0 mi SSE 8.1 mph - N/A   Clear
6:15 AM 21.6 °F 12.1 °F 14.9 °F 76% 30.36 in 10.0 mi SSE 8.1 mph - N/A   Clear
6:35 AM 21.9 °F 12.5 °F 15.3 °F 76% 30.36 in 10.0 mi SSE 8.1 mph - N/A   Clear
6:55 AM 22.3 °F 13.0 °F 15.6 °F 76% 30.36 in 10.0 mi SSE 8.1 mph - N/A   Clear
7:15 AM 22.5 °F 13.2 °F 15.8 °F 76% 30.35 in 10.0 mi SSE 8.1 mph - N/A   Scattered Clouds
7:35 AM 22.6 °F 12.6 °F 15.8 °F 75% 30.36 in 10.0 mi SSE 9.2 mph - N/A   Scattered Clouds
7:55 AM 22.8 °F 12.2 °F 16.0 °F 75% 30.35 in 10.0 mi SSE 10.4 mph 16.1 mph N/A   Mostly Cloudy
8:15 AM 23.2 °F 12.6 °F 16.2 °F 75% 30.36 in 10.0 mi SSE 10.4 mph - N/A   Scattered Clouds
8:35 AM 23.7 °F 14.0 °F 16.3 °F 73% 30.35 in 10.0 mi SSE 9.2 mph - N/A   Scattered Clouds
8:55 AM 23.7 °F 12.6 °F 16.5 °F 74% 30.36 in 7.0 mi South 11.5 mph - N/A   Scattered Clouds
9:15 AM 23.7 °F 14.0 °F 16.7 °F 75% 30.36 in 7.0 mi SSE 9.2 mph 16.1 mph N/A   Mostly Cloudy
9:35 AM 24.4 °F 14.9 °F 17.4 °F 75% 30.36 in 7.0 mi SSE 9.2 mph - N/A   Overcast
9:55 AM 24.8 °F 14.6 °F 17.4 °F 74% 30.36 in 7.0 mi SSE 10.4 mph - N/A   Overcast
10:15 AM 25.3 °F 15.3 °F 17.6 °F 72% 30.37 in 7.0 mi SSE 10.4 mph - N/A   Overcast
10:35 AM 25.7 °F 18.0 °F 18.3 °F 74% 30.37 in 7.0 mi South 6.9 mph - N/A   Overcast
10:55 AM 25.7 °F 17.1 °F 18.1 °F 73% 30.36 in 10.0 mi SSE 8.1 mph - N/A   Overcast
11:15 AM 26.2 °F 18.6 °F 18.5 °F 73% 30.35 in 7.0 mi SSE 6.9 mph - N/A   Overcast
11:35 AM 26.6 °F 17.5 °F 18.7 °F 72% 30.32 in 10.0 mi ESE 9.2 mph - N/A   Overcast
11:55 AM 27.5 °F 21.1 °F 19.0 °F 71% 30.32 in 10.0 mi SSE 5.8 mph - N/A   Overcast
12:15 PM 28.2 °F 18.3 °F 19.4 °F 70% 30.29 in 10.0 mi SE 11.5 mph - N/A   Overcast
12:35 PM 28.4 °F 20.4 °F 19.8 °F 70% 30.27 in 10.0 mi SE 8.1 mph - N/A   Mostly Cloudy
12:55 PM 28.9 °F 20.4 °F 19.9 °F 69% 30.24 in 10.0 mi SE 9.2 mph - N/A   Mostly Cloudy
1:15 PM 28.9 °F 21.1 °F 19.9 °F 69% 30.23 in 10.0 mi SE 8.1 mph - N/A   Overcast
1:35 PM 29.3 °F 22.3 °F 20.3 °F 69% 30.24 in 10.0 mi SSE 6.9 mph - N/A   Overcast
1:55 PM 29.3 °F 21.5 °F 20.3 °F 69% 30.22 in 10.0 mi SE 8.1 mph - N/A   Overcast
2:15 PM 29.3 °F 20.2 °F 20.5 °F 70% 30.21 in 10.0 mi SE 10.4 mph - N/A   Overcast
2:55 PM 30.0 °F 21.7 °F 21.0 °F 69% 30.20 in 10.0 mi ESE 9.2 mph - N/A   Overcast
3:15 PM 30.2 °F 21.3 °F 21.6 °F 70% 30.18 in 10.0 mi ESE 10.4 mph - N/A   Overcast
3:35 PM 30.2 °F 22.6 °F 21.2 °F 69% 30.18 in 10.0 mi SE 8.1 mph - N/A   Overcast
3:55 PM 30.2 °F 21.9 °F 21.4 °F 70% 30.19 in 7.0 mi SE 9.2 mph - N/A Snow Light Snow
4:15 PM 30.2 °F 22.6 °F 23.2 °F 75% 30.18 in 4.0 mi SE 8.1 mph - N/A Snow Light Snow
4:35 PM 30.2 °F 22.6 °F 23.5 °F 76% 30.20 in 7.0 mi SE 8.1 mph - 0.01 in   Overcast
4:55 PM 30.2 °F 21.3 °F 25.0 °F 81% 30.19 in 5.0 mi ESE 10.4 mph - 0.01 in   Overcast
5:15 PM 30.2 °F 20.2 °F 25.0 °F 81% 30.16 in 7.0 mi ESE 12.7 mph - N/A   Overcast
5:35 PM 30.2 °F 20.8 °F 25.7 °F 83% 30.16 in 5.0 mi SE 11.5 mph 17.3 mph N/A   Overcast
5:55 PM 30.2 °F 20.2 °F 26.6 °F 86% 30.16 in 5.0 mi ESE 12.7 mph 18.4 mph N/A   Overcast
6:15 PM 30.2 °F 19.8 °F 27.1 °F 88% 30.13 in 5.0 mi SE 13.8 mph 17.3 mph N/A   Overcast
6:35 PM 30.2 °F 19.3 °F 27.5 °F 90% 30.10 in 5.0 mi SE 15.0 mph 21.9 mph N/A   Overcast
6:55 PM 30.7 °F 19.2 °F 28.0 °F 90% 30.07 in 7.0 mi SE 17.3 mph 24.2 mph N/A   Overcast
7:15 PM 31.1 °F 20.5 °F 28.4 °F 90% 30.07 in 7.0 mi SSE 15.0 mph 21.9 mph N/A   Overcast
7:35 PM 31.6 °F 21.6 °F 28.8 °F 89% 30.06 in 7.0 mi SSE 13.8 mph - N/A   Overcast
7:55 PM 32.0 °F 22.1 °F 29.1 °F 89% 30.05 in 7.0 mi SSE 13.8 mph 18.4 mph N/A   Overcast
8:15 PM 32.0 °F 21.6 °F 29.3 °F 90% 30.04 in 7.0 mi SSE 15.0 mph 21.9 mph N/A   Overcast
8:35 PM 32.2 °F 22.3 °F 29.8 °F 91% 30.03 in 7.0 mi SSE 13.8 mph 19.6 mph N/A   Overcast
8:55 PM 32.4 °F 23.0 °F 30.2 °F 92% 30.02 in 7.0 mi SSE 12.7 mph 18.4 mph N/A   Overcast
9:15 PM 32.5 °F 23.7 °F 30.7 °F 93% 30.01 in 7.0 mi SSE 11.5 mph 18.4 mph N/A   Overcast
9:35 PM 32.9 °F 24.7 °F 31.1 °F 93% 30.02 in 4.0 mi SSE 10.4 mph - 0.01 in   Overcast
9:55 PM 32.9 °F 25.3 °F 31.8 °F 96% 30.01 in 7.0 mi SSE 9.2 mph 17.3 mph 0.01 in   Overcast
10:15 PM 33.1 °F 25.5 °F 32.0 °F 96% 30.00 in 5.0 mi SSE 9.2 mph 19.6 mph N/A   Overcast
10:35 PM 33.3 °F 25.1 °F 32.0 °F 95% 30.01 in 5.0 mi South 10.4 mph 16.1 mph N/A   Overcast
10:55 PM 33.4 °F 25.9 °F 32.4 °F 96% 30.01 in 5.0 mi South 9.2 mph - N/A   Overcast
11:15 PM 33.8 °F 25.8 °F 32.5 °F 95% 30.01 in 4.0 mi South 10.4 mph - N/A   Overcast
11:35 PM 33.8 °F 27.0 °F 32.9 °F 96% 30.00 in 2.5 mi South 8.1 mph - N/A   Overcast
11:55 PM 33.8 °F 25.3 °F 33.1 °F 97% 29.99 in 1.8 mi South 11.5 mph - N/A   Overcast